createdAt,value
2023-04-16T00:01:10.700Z,9.70
2023-04-16T00:03:38.733Z,9.74
2023-04-16T00:06:07.166Z,9.70
2023-04-16T00:08:35.658Z,9.66
2023-04-16T00:11:03.911Z,9.70
2023-04-16T00:13:31.806Z,9.71
2023-04-16T00:16:01.124Z,9.71
2023-04-16T00:18:29.044Z,9.72
2023-04-16T00:20:56.845Z,9.68
2023-04-16T00:23:25.724Z,9.66
2023-04-16T00:25:54.072Z,9.68
2023-04-16T00:28:21.927Z,9.70
2023-04-16T00:30:50.040Z,9.73
2023-04-16T00:33:19.355Z,9.72
2023-04-16T00:35:47.971Z,9.73
2023-04-16T00:38:16.101Z,9.71
2023-04-16T00:40:43.992Z,9.75
2023-04-16T00:43:11.836Z,9.76
2023-04-16T00:45:39.830Z,9.77
2023-04-16T00:48:07.953Z,9.74
2023-04-16T00:50:37.102Z,9.74
2023-04-16T00:53:05.057Z,9.72
2023-04-16T00:55:33.143Z,9.71
2023-04-16T00:58:01.183Z,9.74
2023-04-16T01:00:29.200Z,9.71
2023-04-16T01:02:58.127Z,9.70
2023-04-16T01:05:26.108Z,9.70
2023-04-16T01:07:55.348Z,9.72
2023-04-16T01:10:23.349Z,9.73
2023-04-16T01:12:51.241Z,9.75
2023-04-16T01:15:19.283Z,9.72
2023-04-16T01:17:47.373Z,9.71
2023-04-16T01:20:15.496Z,9.72
2023-04-16T01:22:44.789Z,9.72
2023-04-16T01:25:15.453Z,9.72
2023-04-16T01:27:43.386Z,9.72
2023-04-16T01:30:11.703Z,9.67
2023-04-16T01:32:50.553Z,9.68
2023-04-16T01:35:19.004Z,9.72
2023-04-16T01:37:48.283Z,9.69
2023-04-16T01:40:16.217Z,9.67
2023-04-16T01:42:44.143Z,9.70
2023-04-16T01:45:12.457Z,9.66
2023-04-16T01:47:40.378Z,9.67
2023-04-16T01:50:09.175Z,9.63
2023-04-16T01:52:37.114Z,9.65
2023-04-16T01:55:07.207Z,9.65
2023-04-16T01:57:35.073Z,9.68
2023-04-16T02:00:04.474Z,9.64
2023-04-16T02:02:34.236Z,9.66
2023-04-16T02:05:02.413Z,9.70
2023-04-16T02:07:31.577Z,9.66
2023-04-16T02:09:59.489Z,9.67
2023-04-16T02:12:29.169Z,9.64
2023-04-16T02:14:57.265Z,9.65
2023-04-16T02:17:27.487Z,9.67
2023-04-16T02:20:10.147Z,9.65
2023-04-16T02:22:48.673Z,9.64
2023-04-16T02:25:19.518Z,9.61
2023-04-16T02:27:48.777Z,9.58
2023-04-16T02:30:30.748Z,9.63
2023-04-16T02:32:59.060Z,9.61
2023-04-16T02:35:27.650Z,9.54
2023-04-16T02:37:55.598Z,9.55
2023-04-16T02:40:23.720Z,9.49
2023-04-16T02:42:52.962Z,9.51
2023-04-16T02:45:21.890Z,9.54
2023-04-16T02:47:49.990Z,9.53
2023-04-16T02:50:18.188Z,9.54
2023-04-16T02:52:46.130Z,9.53
2023-04-16T02:55:14.076Z,9.54
2023-04-16T02:57:42.486Z,9.53
2023-04-16T03:00:12.927Z,9.52
2023-04-16T03:02:40.906Z,9.53
2023-04-16T03:05:11.821Z,9.52
2023-04-16T03:07:40.789Z,9.56
2023-04-16T03:10:09.972Z,9.50
2023-04-16T03:12:37.836Z,9.43
2023-04-16T03:15:08.722Z,9.45
2023-04-16T03:17:37.978Z,9.54
2023-04-16T03:20:07.390Z,9.49
2023-04-16T03:22:35.423Z,9.49
2023-04-16T03:25:03.267Z,9.44
2023-04-16T03:27:32.316Z,9.39
2023-04-16T03:30:00.278Z,9.41
2023-04-16T03:32:28.964Z,9.44
2023-04-16T03:34:58.475Z,9.40
2023-04-16T03:37:26.507Z,9.27
2023-04-16T03:39:54.435Z,9.21
2023-04-16T03:42:22.757Z,9.23
2023-04-16T03:44:50.895Z,9.23
2023-04-16T03:47:19.551Z,9.29
2023-04-16T03:49:48.811Z,9.27
2023-04-16T03:52:18.201Z,9.23
2023-04-16T03:54:46.077Z,9.17
2023-04-16T03:57:22.850Z,9.20
2023-04-16T03:59:50.976Z,9.27
2023-04-16T04:02:19.529Z,9.25
2023-04-16T04:04:47.759Z,9.32
2023-04-16T04:07:18.350Z,9.31
2023-04-16T04:09:46.272Z,9.24
2023-04-16T04:12:14.498Z,9.25
2023-04-16T04:14:44.075Z,9.24
2023-04-16T04:17:12.039Z,9.25
2023-04-16T04:19:47.171Z,9.29
2023-04-16T04:22:23.976Z,9.28
2023-04-16T04:24:53.952Z,9.17
2023-04-16T04:27:21.860Z,9.20
2023-04-16T04:29:49.712Z,9.26
2023-04-16T04:32:17.627Z,9.20
2023-04-16T04:34:46.620Z,9.20
2023-04-16T04:37:14.406Z,9.28
2023-04-16T04:39:43.613Z,9.24
2023-04-16T04:42:13.563Z,9.23
2023-04-16T04:44:41.824Z,9.24
2023-04-16T04:47:10.533Z,9.22
2023-04-16T04:49:40.775Z,9.34
2023-04-16T04:52:09.366Z,9.26
2023-04-16T04:54:37.256Z,9.23
2023-04-16T04:57:07.557Z,9.26
2023-04-16T04:59:37.516Z,9.31
2023-04-16T05:02:05.615Z,9.33
2023-04-16T05:04:33.521Z,9.29
2023-04-16T05:07:01.779Z,9.29
2023-04-16T05:09:29.696Z,9.21
2023-04-16T05:11:58.023Z,9.23
2023-04-16T05:14:27.236Z,9.19
2023-04-16T05:16:55.140Z,9.09
2023-04-16T05:19:23.261Z,9.07
2023-04-16T05:21:51.083Z,9.11
2023-04-16T05:24:18.919Z,9.15
2023-04-16T05:26:46.722Z,9.13
2023-04-16T05:29:14.580Z,9.15
2023-04-16T05:31:43.711Z,9.13
2023-04-16T05:34:11.662Z,9.15
2023-04-16T05:36:39.500Z,9.17
2023-04-16T05:39:07.721Z,9.15
2023-04-16T05:41:35.714Z,9.12
2023-04-16T05:44:03.723Z,9.12
2023-04-16T05:46:31.529Z,9.09
2023-04-16T05:49:00.862Z,9.12
2023-04-16T05:51:28.922Z,9.21
2023-04-16T05:53:56.728Z,9.18
2023-04-16T05:56:25.387Z,9.16
2023-04-16T05:58:53.222Z,9.18
2023-04-16T06:01:20.982Z,9.23
2023-04-16T06:03:48.947Z,9.22
2023-04-16T06:06:18.272Z,9.25
2023-04-16T06:08:46.336Z,9.30
2023-04-16T06:11:14.187Z,9.28
2023-04-16T06:13:43.689Z,9.31
2023-04-16T06:16:11.558Z,9.32
2023-04-16T06:18:39.437Z,9.43
2023-04-16T06:21:07.369Z,9.48
2023-04-16T06:23:36.581Z,9.45
2023-04-16T06:26:04.396Z,9.49
2023-04-16T06:28:32.282Z,9.44
2023-04-16T06:31:01.041Z,9.47
2023-04-16T06:33:28.977Z,9.61
2023-04-16T06:35:56.862Z,9.56
2023-04-16T06:38:24.804Z,9.55
2023-04-16T06:40:54.124Z,9.57
2023-04-16T06:43:22.006Z,9.54
2023-04-16T06:45:49.955Z,9.61
2023-04-16T06:48:17.795Z,9.57
2023-04-16T06:50:45.713Z,9.51
2023-04-16T06:53:13.719Z,9.59
2023-04-16T06:55:41.542Z,9.72
2023-04-16T06:58:10.715Z,9.75
2023-04-16T07:00:38.531Z,9.83
2023-04-16T07:03:06.563Z,9.87
2023-04-16T07:05:34.507Z,9.88
2023-04-16T07:08:02.381Z,9.97
2023-04-16T07:10:30.407Z,9.97
2023-04-16T07:12:58.302Z,9.88
2023-04-16T07:15:27.539Z,9.85
2023-04-16T07:17:55.766Z,9.83
2023-04-16T07:20:23.708Z,9.78
2023-04-16T07:22:51.608Z,9.89
2023-04-16T07:25:19.493Z,9.98
2023-04-16T07:27:47.307Z,10.01
2023-04-16T07:30:15.622Z,9.96
2023-04-16T07:32:45.051Z,10.01
2023-04-16T07:35:12.990Z,9.91
2023-04-16T07:37:41.344Z,9.98
2023-04-16T07:40:12.957Z,10.07
2023-04-16T07:42:40.905Z,10.05
2023-04-16T07:45:09.793Z,9.98
2023-04-16T07:47:37.689Z,9.98
2023-04-16T07:50:08.312Z,9.86
2023-04-16T07:52:37.197Z,9.86
2023-04-16T07:55:05.891Z,9.82
2023-04-16T07:57:35.748Z,9.91
2023-04-16T08:00:04.934Z,9.72
2023-04-16T08:02:41.236Z,9.81
2023-04-16T08:05:11.232Z,9.82
2023-04-16T08:07:39.247Z,9.90
2023-04-16T08:10:08.344Z,9.95
2023-04-16T08:12:36.420Z,10.00
2023-04-16T08:15:04.656Z,10.02
2023-04-16T08:17:34.405Z,9.88
2023-04-16T08:20:02.344Z,9.85
2023-04-16T08:22:31.566Z,9.86
2023-04-16T08:24:59.417Z,9.86
2023-04-16T08:27:27.344Z,9.88
2023-04-16T08:29:57.280Z,9.85
2023-04-16T08:32:25.836Z,9.93
2023-04-16T08:34:53.821Z,9.74
2023-04-16T08:37:21.598Z,9.84
2023-04-16T08:39:50.877Z,9.82
2023-04-16T08:42:24.705Z,9.75
2023-04-16T08:44:54.359Z,9.89
2023-04-16T08:47:23.671Z,9.90
2023-04-16T08:49:52.151Z,9.91
2023-04-16T08:52:20.957Z,9.98
2023-04-16T08:54:57.059Z,9.94
2023-04-16T08:57:25.441Z,10.01
2023-04-16T08:59:55.485Z,9.97
2023-04-16T09:02:23.949Z,10.03
2023-04-16T09:04:52.355Z,10.00
2023-04-16T09:07:20.846Z,9.99
2023-04-16T09:09:52.128Z,9.90
2023-04-16T09:12:20.504Z,9.80
2023-04-16T09:14:49.682Z,9.95
2023-04-16T09:17:17.883Z,10.01
2023-04-16T09:19:45.894Z,10.07
2023-04-16T09:22:13.735Z,10.31
2023-04-16T09:24:41.899Z,10.60
2023-04-16T09:27:12.195Z,10.70
2023-04-16T09:29:41.506Z,10.79
2023-04-16T09:32:10.733Z,11.01
2023-04-16T09:34:57.568Z,11.02
2023-04-16T09:37:26.022Z,10.90
2023-04-16T09:39:55.144Z,10.92
2023-04-16T09:42:25.562Z,10.91
2023-04-16T09:44:53.769Z,10.71
2023-04-16T09:47:22.453Z,10.80
2023-04-16T09:49:50.410Z,10.72
2023-04-16T09:52:20.046Z,10.75
2023-04-16T09:54:49.307Z,10.64
2023-04-16T09:57:20.933Z,10.66
2023-04-16T09:59:50.408Z,10.63
2023-04-16T10:02:18.552Z,10.68
2023-04-16T10:04:47.965Z,10.71
2023-04-16T10:07:16.357Z,10.74
2023-04-16T10:09:44.479Z,10.79
2023-04-16T10:12:13.416Z,10.68
2023-04-16T10:14:41.893Z,10.63
2023-04-16T10:17:11.480Z,10.68
2023-04-16T10:19:39.963Z,10.73
2023-04-16T10:22:07.819Z,10.68
2023-04-16T10:24:36.172Z,10.63
2023-04-16T10:27:04.034Z,10.74
2023-04-16T10:29:32.433Z,10.89
2023-04-16T10:32:01.079Z,10.84
2023-04-16T10:34:31.206Z,10.86
2023-04-16T10:36:59.208Z,10.92
2023-04-16T10:39:29.780Z,10.86
2023-04-16T10:42:08.866Z,10.97
2023-04-16T10:44:36.968Z,11.30
2023-04-16T10:47:12.094Z,11.17
2023-04-16T10:49:42.368Z,11.35
2023-04-16T10:52:12.438Z,11.38
2023-04-16T10:54:40.768Z,11.39
2023-04-16T10:57:10.699Z,11.46
2023-04-16T10:59:39.783Z,11.44
2023-04-16T11:02:09.525Z,11.40
2023-04-16T11:04:38.858Z,11.47
2023-04-16T11:07:16.390Z,11.51
2023-04-16T11:09:59.308Z,11.44
2023-04-16T11:12:29.061Z,11.53
2023-04-16T11:15:00.850Z,11.70
2023-04-16T11:17:30.736Z,11.99
2023-04-16T11:19:58.743Z,12.27
2023-04-16T11:22:28.182Z,12.32
2023-04-16T11:24:57.081Z,12.34
2023-04-16T11:27:25.468Z,12.13
2023-04-16T11:30:01.203Z,11.95
2023-04-16T11:32:29.418Z,11.70
2023-04-16T11:34:57.315Z,11.50
2023-04-16T11:37:34.950Z,11.18
2023-04-16T11:40:06.312Z,11.24
2023-04-16T11:42:36.958Z,11.28
2023-04-16T11:45:06.248Z,11.24
2023-04-16T11:47:45.993Z,11.22
2023-04-16T11:50:21.571Z,11.25
2023-04-16T11:52:52.296Z,11.39
2023-04-16T11:55:21.340Z,11.44
2023-04-16T11:57:49.736Z,11.74
2023-04-16T12:00:21.761Z,12.01
2023-04-16T12:02:54.231Z,12.24
2023-04-16T12:05:31.808Z,12.40
2023-04-16T12:08:02.208Z,12.10
2023-04-16T12:10:30.751Z,12.12
2023-04-16T12:13:11.682Z,11.77
2023-04-16T12:15:47.225Z,11.59
2023-04-16T12:18:16.062Z,11.49
2023-04-16T12:20:44.441Z,11.32
2023-04-16T12:23:24.049Z,11.31
2023-04-16T12:25:51.972Z,11.32
2023-04-16T12:28:28.998Z,11.28
2023-04-16T12:30:57.539Z,11.23
2023-04-16T12:33:25.549Z,11.16
2023-04-16T12:35:53.400Z,11.00
2023-04-16T12:38:24.499Z,11.05
2023-04-16T12:40:52.772Z,10.90
2023-04-16T12:43:21.904Z,10.97
2023-04-16T12:45:49.843Z,10.90
2023-04-16T12:48:17.682Z,10.84
2023-04-16T12:50:45.982Z,10.84
2023-04-16T12:53:13.840Z,10.77
2023-04-16T12:55:43.046Z,10.79
2023-04-16T12:58:12.572Z,10.82
2023-04-16T13:00:40.888Z,10.70
2023-04-16T13:03:09.241Z,10.66
2023-04-16T13:05:37.182Z,10.62
2023-04-16T13:08:05.262Z,10.41
2023-04-16T13:10:33.091Z,10.35
2023-04-16T13:13:02.368Z,10.35
2023-04-16T13:15:30.277Z,10.29
2023-04-16T13:17:58.246Z,10.35
2023-04-16T13:20:26.181Z,10.53
2023-04-16T13:22:54.922Z,10.49
2023-04-16T13:25:22.776Z,10.60
2023-04-16T13:27:50.823Z,10.71
2023-04-16T13:30:20.512Z,10.79
2023-04-16T13:32:48.427Z,10.84
2023-04-16T13:35:16.334Z,10.96
2023-04-16T13:37:44.119Z,11.08
2023-04-16T13:40:12.462Z,11.21
2023-04-16T13:42:40.762Z,11.35
2023-04-16T13:45:09.875Z,11.50
2023-04-16T13:47:40.186Z,11.32
2023-04-16T13:50:08.638Z,11.40
2023-04-16T13:52:36.558Z,11.46
2023-04-16T13:55:04.767Z,11.52
2023-04-16T13:57:32.991Z,11.54
2023-04-16T14:00:00.904Z,11.59
2023-04-16T14:02:28.906Z,11.76
2023-04-16T14:04:58.143Z,11.95
2023-04-16T14:07:27.210Z,12.16
2023-04-16T14:09:55.325Z,12.44
2023-04-16T14:12:23.240Z,12.44
2023-04-16T14:14:51.150Z,12.61
2023-04-16T14:17:19.121Z,12.84
2023-04-16T14:19:47.086Z,12.67
2023-04-16T14:22:17.795Z,12.69
2023-04-16T14:24:45.698Z,12.68
2023-04-16T14:27:13.706Z,12.54
2023-04-16T14:29:41.999Z,12.05
2023-04-16T14:32:09.966Z,11.94
2023-04-16T14:34:37.944Z,11.80
2023-04-16T14:37:05.823Z,11.62
2023-04-16T14:39:36.274Z,11.61
2023-04-16T14:42:04.384Z,11.55
2023-04-16T14:44:32.197Z,11.22
2023-04-16T14:47:00.086Z,11.20
2023-04-16T14:49:27.908Z,11.04
2023-04-16T14:51:56.540Z,10.99
2023-04-16T14:54:24.576Z,10.94
2023-04-16T14:56:53.764Z,10.88
2023-04-16T14:59:21.569Z,10.82
2023-04-16T15:01:49.521Z,10.82
2023-04-16T15:04:17.689Z,10.75
2023-04-16T15:06:46.659Z,10.62
2023-04-16T15:09:14.742Z,10.51
2023-04-16T15:11:42.698Z,10.49
2023-04-16T15:14:11.991Z,10.51
2023-04-16T15:16:40.051Z,10.49
2023-04-16T15:19:08.089Z,10.38
2023-04-16T15:21:35.996Z,10.33
2023-04-16T15:24:03.994Z,10.33
2023-04-16T15:26:32.003Z,10.31
2023-04-16T15:28:59.854Z,10.43
2023-04-16T15:31:29.264Z,10.39
2023-04-16T15:33:57.179Z,10.42
2023-04-16T15:36:24.963Z,10.41
2023-04-16T15:38:52.941Z,10.42
2023-04-16T15:41:20.814Z,10.50
2023-04-16T15:43:48.685Z,10.49
2023-04-16T15:46:16.608Z,10.57
2023-04-16T15:48:46.004Z,10.56
2023-04-16T15:51:13.913Z,10.53
2023-04-16T15:53:42.187Z,10.58
2023-04-16T15:56:10.001Z,10.49
2023-04-16T15:58:37.896Z,10.44
2023-04-16T16:01:05.792Z,10.45
2023-04-16T16:03:35.811Z,10.42
2023-04-16T16:06:05.587Z,10.49
2023-04-16T16:08:35.868Z,10.43
2023-04-16T16:11:04.033Z,10.40
2023-04-16T16:13:32.055Z,10.37
2023-04-16T16:15:59.918Z,10.34
2023-04-16T16:18:27.838Z,10.42
2023-04-16T16:20:57.775Z,10.29
2023-04-16T16:23:27.144Z,10.34
2023-04-16T16:25:55.319Z,10.28
2023-04-16T16:28:24.144Z,10.27
2023-04-16T16:30:54.603Z,10.19
2023-04-16T16:33:22.545Z,10.20
2023-04-16T16:35:50.501Z,10.14
2023-04-16T16:38:18.631Z,10.11
2023-04-16T16:40:47.863Z,10.07
2023-04-16T16:43:16.303Z,10.10
2023-04-16T16:45:44.245Z,10.02
2023-04-16T16:48:12.159Z,10.01
2023-04-16T16:50:40.018Z,9.97
2023-04-16T16:53:07.861Z,9.94
2023-04-16T16:55:36.043Z,9.92
2023-04-16T16:58:05.371Z,9.89
2023-04-16T17:00:33.313Z,9.83
2023-04-16T17:03:01.359Z,9.80
2023-04-16T17:05:29.390Z,9.72
2023-04-16T17:07:57.214Z,9.67
2023-04-16T17:10:25.081Z,9.67
2023-04-16T17:12:52.959Z,9.60
2023-04-16T17:15:22.303Z,9.61
2023-04-16T17:17:51.341Z,9.66
2023-04-16T17:20:19.941Z,9.63
2023-04-16T17:22:47.872Z,9.60
2023-04-16T17:25:15.934Z,9.54
2023-04-16T17:27:43.789Z,9.53
2023-04-16T17:30:12.109Z,9.50
2023-04-16T17:32:41.382Z,9.52
2023-04-16T17:35:10.856Z,9.55
2023-04-16T17:37:38.852Z,9.47
2023-04-16T17:40:09.572Z,9.44
2023-04-16T17:42:37.645Z,9.40
2023-04-16T17:45:06.195Z,9.33
2023-04-16T17:47:35.617Z,9.32
2023-04-16T17:50:05.579Z,9.36
2023-04-16T17:52:33.504Z,9.33
2023-04-16T17:55:01.622Z,9.39
2023-04-16T17:57:29.756Z,9.31
2023-04-16T17:59:58.173Z,9.34
2023-04-16T18:02:26.230Z,9.33
2023-04-16T18:04:54.229Z,9.26
2023-04-16T18:07:23.539Z,9.21
2023-04-16T18:09:51.341Z,9.17
2023-04-16T18:12:19.193Z,9.20
2023-04-16T18:14:47.128Z,9.17
2023-04-16T18:17:15.479Z,9.15
2023-04-16T18:19:44.248Z,9.14
2023-04-16T18:22:13.150Z,9.05
2023-04-16T18:24:42.364Z,8.94
2023-04-16T18:27:10.346Z,8.92
2023-04-16T18:29:40.016Z,8.89
2023-04-16T18:32:11.712Z,8.87
2023-04-16T18:34:40.088Z,8.84
2023-04-16T18:37:08.097Z,8.87
2023-04-16T18:39:36.565Z,8.83
2023-04-16T18:42:06.142Z,8.88
2023-04-16T18:44:34.007Z,8.89
2023-04-16T18:47:01.985Z,8.87
2023-04-16T18:49:29.933Z,8.87
2023-04-16T18:51:57.743Z,8.86
2023-04-16T18:54:25.703Z,8.87
2023-04-16T18:56:53.599Z,8.91
2023-04-16T18:59:22.739Z,8.98
2023-04-16T19:01:50.744Z,8.93
2023-04-16T19:04:18.821Z,8.93
2023-04-16T19:06:48.343Z,8.94
2023-04-16T19:09:16.946Z,8.91
2023-04-16T19:11:45.301Z,8.88
2023-04-16T19:14:13.126Z,8.93
2023-04-16T19:16:42.574Z,8.90
2023-04-16T19:19:10.544Z,8.92
2023-04-16T19:21:38.819Z,8.89
2023-04-16T19:24:07.355Z,8.86
2023-04-16T19:26:35.139Z,8.89
2023-04-16T19:29:03.388Z,8.85
2023-04-16T19:31:31.313Z,8.83
2023-04-16T19:34:00.549Z,8.82
2023-04-16T19:36:28.399Z,8.87
2023-04-16T19:38:56.265Z,8.88
2023-04-16T19:41:24.249Z,8.87
2023-04-16T19:43:52.120Z,8.87
2023-04-16T19:46:20.067Z,8.90
2023-04-16T19:48:48.238Z,8.86
2023-04-16T19:51:18.277Z,8.85
2023-04-16T19:53:46.510Z,8.90
2023-04-16T19:56:15.911Z,8.88
2023-04-16T19:58:43.844Z,8.87
2023-04-16T20:01:11.845Z,8.88
2023-04-16T20:03:39.794Z,8.80
2023-04-16T20:06:07.845Z,8.81
2023-04-16T20:08:37.124Z,8.73
2023-04-16T20:11:04.899Z,8.75
2023-04-16T20:13:32.761Z,8.63
2023-04-16T20:16:01.159Z,8.71
2023-04-16T20:18:29.203Z,8.63
2023-04-16T20:20:57.004Z,8.64
2023-04-16T20:23:24.827Z,8.57
2023-04-16T20:25:54.079Z,8.58
2023-04-16T20:28:22.132Z,8.67
2023-04-16T20:30:50.882Z,8.55
2023-04-16T20:33:18.930Z,8.56
2023-04-16T20:35:47.028Z,8.53
2023-04-16T20:38:14.902Z,8.48
2023-04-16T20:40:44.964Z,8.45
2023-04-16T20:43:14.335Z,8.44
2023-04-16T20:45:46.049Z,8.48
2023-04-16T20:48:13.957Z,8.44
2023-04-16T20:50:41.886Z,8.43
2023-04-16T20:53:09.769Z,8.48
2023-04-16T20:55:37.671Z,8.42
2023-04-16T20:58:05.472Z,8.35
2023-04-16T21:00:34.657Z,8.31
2023-04-16T21:03:02.694Z,8.31
2023-04-16T21:05:30.862Z,8.28
2023-04-16T21:07:58.709Z,8.24
2023-04-16T21:10:26.482Z,8.21
2023-04-16T21:12:54.311Z,8.25
2023-04-16T21:15:22.160Z,8.23
2023-04-16T21:17:51.400Z,8.18
2023-04-16T21:20:19.556Z,8.18
2023-04-16T21:22:47.381Z,8.15
2023-04-16T21:25:15.344Z,8.12
2023-04-16T21:27:43.870Z,8.13
2023-04-16T21:30:12.919Z,8.06
2023-04-16T21:32:40.862Z,8.01
2023-04-16T21:35:10.593Z,8.03
2023-04-16T21:37:38.474Z,8.00
2023-04-16T21:40:07.532Z,7.97
2023-04-16T21:42:44.514Z,8.00
2023-04-16T21:45:14.406Z,7.95
2023-04-16T21:47:42.217Z,7.92
2023-04-16T21:50:12.648Z,7.92
2023-04-16T21:52:46.215Z,7.93
2023-04-16T21:55:14.599Z,7.91
2023-04-16T21:57:42.462Z,7.79
2023-04-16T22:00:13.884Z,7.79
2023-04-16T22:02:42.789Z,7.74
2023-04-16T22:05:12.650Z,7.78
2023-04-16T22:07:40.729Z,7.72
2023-04-16T22:10:10.174Z,7.73
2023-04-16T22:12:39.527Z,7.75
2023-04-16T22:15:09.020Z,7.72
2023-04-16T22:17:36.992Z,7.72
2023-04-16T22:20:08.469Z,7.64
2023-04-16T22:22:37.820Z,7.62
2023-04-16T22:25:06.521Z,7.64
2023-04-16T22:27:34.526Z,7.66
2023-04-16T22:30:02.663Z,7.63
2023-04-16T22:32:31.471Z,7.55
2023-04-16T22:34:59.642Z,7.50
2023-04-16T22:37:27.625Z,7.48
2023-04-16T22:39:56.790Z,7.42
2023-04-16T22:42:24.848Z,7.42
2023-04-16T22:44:52.642Z,7.40
2023-04-16T22:47:21.372Z,7.43
2023-04-16T22:49:49.547Z,7.40
2023-04-16T22:52:17.391Z,7.37
2023-04-16T22:54:45.261Z,7.38
2023-04-16T22:57:17.349Z,7.40
2023-04-16T22:59:45.241Z,7.34
2023-04-16T23:02:13.525Z,7.33
2023-04-16T23:04:41.738Z,7.31
2023-04-16T23:07:09.578Z,7.31
2023-04-16T23:09:37.435Z,7.33
2023-04-16T23:12:05.812Z,7.36
2023-04-16T23:14:35.440Z,7.39
2023-04-16T23:17:03.578Z,7.41
2023-04-16T23:19:31.804Z,7.41
2023-04-16T23:21:59.728Z,7.39
2023-04-16T23:24:27.573Z,7.42
2023-04-16T23:26:55.966Z,7.44
2023-04-16T23:29:23.813Z,7.44
2023-04-16T23:31:53.116Z,7.52
2023-04-16T23:34:21.074Z,7.41
2023-04-16T23:36:49.000Z,7.43
2023-04-16T23:39:16.998Z,7.38
2023-04-16T23:41:44.845Z,7.41
2023-04-16T23:44:12.934Z,7.44
2023-04-16T23:46:41.178Z,7.43
2023-04-16T23:49:10.770Z,7.43
2023-04-16T23:51:38.920Z,7.46
2023-04-16T23:54:06.865Z,7.41
2023-04-16T23:56:34.778Z,7.44
2023-04-16T23:59:02.701Z,7.43
